Meteo Giornale » Osservazioni meteo Stati Uniti (USA) » Glendive
ore: 20:56 - Osservazioni Meteo Glendive
Lat. 47° 8' N Lon. 104° 48' W Alt. 749 metri s.l.m.
17 °C
Sereno
Temp. 24 Ore
10 °C
27 °C
Nord-Ovest
7.4 Km/h
Dew point 6 °C
Umidità 48 %
Visibilità 10 Km
Il sole sorge alle ore 06:17
Il sole tramonta alle ore 19:41
| Data e Ora | Cielo e Fenomeni | T °C | DP °C | Um. % | Pres. hPa | Vis. km | Vento km/h | |
|---|---|---|---|---|---|---|---|---|
| Oggi h: 20:56 | Sereno | 17 | 6 | 48 | 1015 | 10 | NO 7.4 | |
| Oggi h: 19:56 | Sereno | 20 | 6 | 39 | 1015 | 10 | O/NO 11.1 | |
| Oggi h: 18:56 | Sereno | 24 | 6 | 31 | 1014 | 10 | O/NO 22.2 | |
| Oggi h: 17:56 | Sereno | 26 | 6 | 27 | 1014 | 10 | O/NO 27.8 | |
| Oggi h: 16:56 | Sereno | 27 | 6 | 26 | 1014 | 10 | O/NO 27.8 | |
| Oggi h: 15:56 | Poco Nuvoloso | 27 | 6 | 26 | 1014 | 10 | O 24 | |
| Oggi h: 14:56 | Sereno | 27 | 6 | 26 | 1014 | 10 | O 33.3 | |
| Oggi h: 13:56 | Sereno | 26 | 6 | 27 | 1014 | 10 | O 29.6 | |
| Oggi h: 12:56 | Sereno | 25 | 6 | 29 | 1014 | 10 | O 38.8 | |
| Oggi h: 11:56 | Sereno | 24 | 6 | 31 | 1014 | 10 | O/NO 42.6 | |
| Oggi h: 10:56 | Sereno | 23 | 6 | 33 | 1014 | 10 | O 37 | |
| Oggi h: 09:56 | Sereno | 22 | 4 | 30 | 1014 | 10 | O 31.5 | |
| Oggi h: 08:56 | Sereno | 20 | 4 | 34 | 1013 | 10 | O/SO 31.5 | |
| Oggi h: 07:56 | Sereno | 17 | 4 | 41 | 1013 | 10 | SO 24 | |
| Oggi h: 06:56 | Sereno | 14 | 4 | 50 | 1012 | 10 | O/SO 14.8 | |
| Oggi h: 05:56 | Sereno | 11 | 7 | 76 | 1012 | 10 | S/SO 18.5 | |
| Oggi h: 04:56 | Sereno | 12 | 7 | 71 | 1012 | 10 | SO 14.8 | |
| Oggi h: 03:56 | Sereno | 13 | 9 | 76 | 1012 | 10 | O 16.7 | |
| Oggi h: 02:56 | Sereno | 13 | 10 | 81 | 1011 | 10 | O 18.5 | |
| Oggi h: 01:56 | Sereno | 11 | 8 | 81 | 1011 | 10 | S/SO 9.3 | |
| Oggi h: 00:56 | Sereno | 11 | 8 | 81 | 1011 | 10 | SO 9.3 | |
| Ieri h: 23:56 | Sereno | 10 | 8 | 87 | 1011 | 10 | O/SO 7.4 | |
| Ieri h: 22:56 | Sereno | 10 | 8 | 87 | 1012 | 10 | SO 9.3 | |
| Ieri h: 21:56 | Sereno | 11 | 8 | 81 | 1012 | 10 | O 11.1 | |



